createdAt,value
2022-12-12T00:00:50.092Z,1003.60
2022-12-12T00:01:50.118Z,1003.59
2022-12-12T00:02:50.115Z,1003.59
2022-12-12T00:03:50.242Z,1003.58
2022-12-12T00:04:50.077Z,1003.60
2022-12-12T00:05:50.022Z,1003.59
2022-12-12T00:06:50.030Z,1003.61
2022-12-12T00:07:50.093Z,1003.59
2022-12-12T00:08:50.040Z,1003.63
2022-12-12T00:09:50.016Z,1003.58
2022-12-12T00:10:50.013Z,1003.59
2022-12-12T00:11:49.981Z,1003.61
2022-12-12T00:12:49.953Z,1003.62
2022-12-12T00:13:50.022Z,1003.68
2022-12-12T00:14:50.001Z,1003.64
2022-12-12T00:15:49.967Z,1003.60
2022-12-12T00:16:49.901Z,1003.61
2022-12-12T00:17:49.906Z,1003.64
2022-12-12T00:18:49.928Z,1003.63
2022-12-12T00:19:49.901Z,1003.63
2022-12-12T00:20:49.855Z,1003.66
2022-12-12T00:21:49.850Z,1003.69
2022-12-12T00:22:49.886Z,1003.67
2022-12-12T00:23:49.851Z,1003.64
2022-12-12T00:24:49.999Z,1003.64
2022-12-12T00:25:49.789Z,1003.65
2022-12-12T00:26:49.791Z,1003.64
2022-12-12T00:27:49.807Z,1003.66
2022-12-12T00:28:49.786Z,1003.63
2022-12-12T00:29:49.786Z,1003.64
2022-12-12T00:30:49.834Z,1003.64
2022-12-12T00:31:49.769Z,1003.61
2022-12-12T00:32:49.715Z,1003.63
2022-12-12T00:33:49.752Z,1003.67
2022-12-12T00:34:49.733Z,1003.64
2022-12-12T00:35:49.709Z,1003.65
2022-12-12T00:36:49.667Z,1003.63
2022-12-12T00:37:49.693Z,1003.61
2022-12-12T00:38:49.677Z,1003.61
2022-12-12T00:39:50.135Z,1003.61
2022-12-12T00:40:49.722Z,1003.63
2022-12-12T00:41:49.652Z,1003.64
2022-12-12T00:42:49.623Z,1003.65
2022-12-12T00:43:49.581Z,1003.60
2022-12-12T00:44:49.656Z,1003.62
2022-12-12T00:45:49.607Z,1003.61
2022-12-12T00:46:49.591Z,1003.63
2022-12-12T00:47:49.581Z,1003.64
2022-12-12T00:48:49.596Z,1003.63
2022-12-12T00:49:49.577Z,1003.64
2022-12-12T00:50:49.545Z,1003.62
2022-12-12T00:51:49.508Z,1003.62
2022-12-12T00:52:49.508Z,1003.62
2022-12-12T00:53:49.485Z,1003.62
2022-12-12T00:54:49.528Z,1003.67
2022-12-12T00:55:49.481Z,1003.63
2022-12-12T00:56:49.438Z,1003.65
2022-12-12T00:57:49.440Z,1003.61
2022-12-12T00:58:49.449Z,1003.63
2022-12-12T00:59:49.479Z,1003.62
2022-12-12T01:00:49.464Z,1003.64
2022-12-12T01:01:49.479Z,1003.64
2022-12-12T01:02:49.463Z,1003.65
2022-12-12T01:03:49.390Z,1003.66
2022-12-12T01:04:49.413Z,1003.71
2022-12-12T01:05:49.396Z,1003.71
2022-12-12T01:06:49.352Z,1003.74
2022-12-12T01:07:49.347Z,1003.76
2022-12-12T01:08:49.375Z,1003.78
2022-12-12T01:09:49.346Z,1003.76
2022-12-12T01:10:49.296Z,1003.79
2022-12-12T01:11:49.391Z,1003.77
2022-12-12T01:12:49.290Z,1003.78
2022-12-12T01:13:49.281Z,1003.81
2022-12-12T01:14:49.320Z,1003.82
2022-12-12T01:15:49.285Z,1003.82
2022-12-12T01:16:49.340Z,1003.86
2022-12-12T01:17:49.231Z,1003.83
2022-12-12T01:18:49.266Z,1003.82
2022-12-12T01:19:49.205Z,1003.84
2022-12-12T01:20:49.204Z,1003.88
2022-12-12T01:21:49.164Z,1003.88
2022-12-12T01:22:49.174Z,1003.92
2022-12-12T01:23:49.203Z,1003.87
2022-12-12T01:24:49.172Z,1003.94
2022-12-12T01:25:49.134Z,1003.92
2022-12-12T01:26:49.111Z,1003.93
2022-12-12T01:27:49.118Z,1003.93
2022-12-12T01:28:49.101Z,1003.91
2022-12-12T01:29:49.131Z,1003.96
2022-12-12T01:30:49.158Z,1003.99
2022-12-12T01:31:49.145Z,1003.93
2022-12-12T01:32:49.083Z,1003.98
2022-12-12T01:33:49.041Z,1003.97
2022-12-12T01:34:49.050Z,1004.01
2022-12-12T01:35:49.025Z,1003.98
2022-12-12T01:36:49.006Z,1004.01
2022-12-12T01:37:49.022Z,1004.00
2022-12-12T01:38:49.002Z,1003.97
2022-12-12T01:39:49.091Z,1003.99
2022-12-12T01:40:49.002Z,1004.05
2022-12-12T01:41:48.978Z,1004.03
2022-12-12T01:42:48.943Z,1004.05
2022-12-12T01:43:48.937Z,1004.04
2022-12-12T01:44:48.924Z,1004.08
2022-12-12T01:45:48.889Z,1004.08
2022-12-12T01:46:48.946Z,1004.08
2022-12-12T01:47:48.877Z,1004.07
2022-12-12T01:48:48.863Z,1004.08
2022-12-12T01:49:48.910Z,1004.08
2022-12-12T01:50:48.848Z,1004.11
2022-12-12T01:51:48.854Z,1004.12
2022-12-12T01:52:48.809Z,1004.15
2022-12-12T01:53:48.818Z,1004.17
2022-12-12T01:54:48.827Z,1004.17
2022-12-12T01:55:48.815Z,1004.11
2022-12-12T01:56:48.784Z,1004.14
2022-12-12T01:57:48.755Z,1004.12
2022-12-12T01:58:48.749Z,1004.17
2022-12-12T01:59:48.808Z,1004.19
2022-12-12T02:00:48.803Z,1004.18
2022-12-12T02:01:48.826Z,1004.19
2022-12-12T02:02:48.715Z,1004.21
2022-12-12T02:03:48.737Z,1004.17
2022-12-12T02:04:48.737Z,1004.17
2022-12-12T02:05:48.746Z,1004.19
2022-12-12T02:06:48.669Z,1004.16
2022-12-12T02:07:48.694Z,1004.17
2022-12-12T02:08:48.657Z,1004.17
2022-12-12T02:09:48.685Z,1004.19
2022-12-12T02:10:48.646Z,1004.23
2022-12-12T02:11:48.609Z,1004.20
2022-12-12T02:12:48.665Z,1004.20
2022-12-12T02:13:48.620Z,1004.19
2022-12-12T02:14:48.666Z,1004.20
2022-12-12T02:15:48.690Z,1004.24
2022-12-12T02:16:48.599Z,1004.17
2022-12-12T02:17:48.532Z,1004.18
2022-12-12T02:18:48.526Z,1004.24
2022-12-12T02:19:48.601Z,1004.17
2022-12-12T02:20:48.547Z,1004.23
2022-12-12T02:21:48.499Z,1004.23
2022-12-12T02:22:48.500Z,1004.21
2022-12-12T02:23:48.469Z,1004.21
2022-12-12T02:24:48.512Z,1004.18
2022-12-12T02:25:48.482Z,1004.16
2022-12-12T02:26:48.467Z,1004.18
2022-12-12T02:27:48.429Z,1004.14
2022-12-12T02:28:48.509Z,1004.21
2022-12-12T02:29:48.500Z,1004.21
2022-12-12T02:30:48.402Z,1004.22
2022-12-12T02:31:48.446Z,1004.25
2022-12-12T02:32:48.457Z,1004.20
2022-12-12T02:33:48.373Z,1004.24
2022-12-12T02:34:48.394Z,1004.19
2022-12-12T02:35:48.343Z,1004.19
2022-12-12T02:36:48.361Z,1004.15
2022-12-12T02:37:48.336Z,1004.20
2022-12-12T02:38:48.335Z,1004.17
2022-12-12T02:39:48.449Z,1004.17
2022-12-12T02:40:48.338Z,1004.17
2022-12-12T02:41:48.268Z,1004.16
2022-12-12T02:42:48.296Z,1004.17
2022-12-12T02:43:48.331Z,1004.12
2022-12-12T02:44:48.263Z,1004.12
2022-12-12T02:45:48.228Z,1004.13
2022-12-12T02:46:48.303Z,1004.16
2022-12-12T02:47:48.229Z,1004.19
2022-12-12T02:48:48.209Z,1004.19
2022-12-12T02:49:48.219Z,1004.16
2022-12-12T02:50:48.161Z,1004.21
2022-12-12T02:51:48.172Z,1004.20
2022-12-12T02:52:48.176Z,1004.21
2022-12-12T02:53:48.136Z,1004.23
2022-12-12T02:54:48.150Z,1004.23
2022-12-12T02:55:48.165Z,1004.27
2022-12-12T02:56:48.131Z,1004.26
2022-12-12T02:57:48.079Z,1004.26
2022-12-12T02:58:48.068Z,1004.24
2022-12-12T02:59:48.258Z,1004.23
2022-12-12T03:00:48.112Z,1004.25
2022-12-12T03:01:48.102Z,1004.28
2022-12-12T03:02:48.044Z,1004.27
2022-12-12T03:03:48.037Z,1004.28
2022-12-12T03:04:48.056Z,1004.24
2022-12-12T03:05:48.030Z,1004.23
2022-12-12T03:06:48.022Z,1004.20
2022-12-12T03:07:48.095Z,1004.22
2022-12-12T03:08:47.985Z,1004.21
2022-12-12T03:09:47.985Z,1004.23
2022-12-12T03:10:47.984Z,1004.19
2022-12-12T03:11:47.961Z,1004.17
2022-12-12T03:12:47.929Z,1004.16
2022-12-12T03:13:47.930Z,1004.21
2022-12-12T03:14:47.942Z,1004.14
2022-12-12T03:15:47.913Z,1004.20
2022-12-12T03:16:47.871Z,1004.14
2022-12-12T03:17:47.907Z,1004.17
2022-12-12T03:18:47.907Z,1004.17
2022-12-12T03:19:47.900Z,1004.15
2022-12-12T03:20:47.849Z,1004.11
2022-12-12T03:21:47.843Z,1004.19
2022-12-12T03:22:47.806Z,1004.13
2022-12-12T03:23:47.934Z,1004.16
2022-12-12T03:24:47.837Z,1004.19
2022-12-12T03:25:48.603Z,1004.16
2022-12-12T03:26:47.764Z,1004.14
2022-12-12T03:27:47.800Z,1004.14
2022-12-12T03:28:47.764Z,1004.10
2022-12-12T03:29:47.800Z,1004.12
2022-12-12T03:30:47.732Z,1004.14
2022-12-12T03:31:47.817Z,1004.09
2022-12-12T03:32:47.750Z,1004.14
2022-12-12T03:33:47.698Z,1004.14
2022-12-12T03:34:47.693Z,1004.11
2022-12-12T03:35:47.675Z,1004.15
2022-12-12T03:36:47.659Z,1004.13
2022-12-12T03:37:47.678Z,1004.15
2022-12-12T03:38:47.687Z,1004.13
2022-12-12T03:39:47.658Z,1004.17
2022-12-12T03:40:47.599Z,1004.16
2022-12-12T03:41:47.603Z,1004.14
2022-12-12T03:42:47.596Z,1004.14
2022-12-12T03:43:47.615Z,1004.07
2022-12-12T03:44:47.635Z,1004.08
2022-12-12T03:45:47.590Z,1004.11
2022-12-12T03:46:47.598Z,1004.14
2022-12-12T03:47:47.521Z,1004.09
2022-12-12T03:48:47.499Z,1004.12
2022-12-12T03:49:47.574Z,1004.08
2022-12-12T03:50:47.530Z,1004.08
2022-12-12T03:51:47.507Z,1004.12
2022-12-12T03:52:47.496Z,1004.09
2022-12-12T03:53:47.498Z,1004.10
2022-12-12T03:54:47.474Z,1004.08
2022-12-12T03:55:47.435Z,1004.10
2022-12-12T03:56:47.450Z,1004.14
2022-12-12T03:57:47.477Z,1004.11
2022-12-12T03:58:47.403Z,1004.13
2022-12-12T03:59:47.423Z,1004.12
2022-12-12T04:00:47.432Z,1004.13
2022-12-12T04:01:47.408Z,1004.16
2022-12-12T04:02:47.350Z,1004.16
2022-12-12T04:03:47.400Z,1004.14
2022-12-12T04:04:47.387Z,1004.17
2022-12-12T04:05:47.346Z,1004.15
2022-12-12T04:06:47.341Z,1004.15
2022-12-12T04:07:47.347Z,1004.16
2022-12-12T04:08:47.299Z,1004.14
2022-12-12T04:09:47.319Z,1004.17
2022-12-12T04:10:47.255Z,1004.20
2022-12-12T04:11:47.253Z,1004.18
2022-12-12T04:12:47.955Z,1004.17
2022-12-12T04:13:47.244Z,1004.20
2022-12-12T04:14:47.264Z,1004.18
2022-12-12T04:15:47.236Z,1004.26
2022-12-12T04:16:47.262Z,1004.21
2022-12-12T04:17:47.196Z,1004.20
2022-12-12T04:18:47.210Z,1004.25
2022-12-12T04:19:47.197Z,1004.21
2022-12-12T04:20:47.204Z,1004.28
2022-12-12T04:21:47.132Z,1004.21
2022-12-12T04:22:47.122Z,1004.26
2022-12-12T04:23:47.122Z,1004.21
2022-12-12T04:24:47.152Z,1004.26
2022-12-12T04:25:47.106Z,1004.26
2022-12-12T04:26:47.116Z,1004.25
2022-12-12T04:27:47.099Z,1004.28
2022-12-12T04:28:47.053Z,1004.27
2022-12-12T04:29:47.110Z,1004.26
2022-12-12T04:30:47.097Z,1004.28
2022-12-12T04:31:47.171Z,1004.33
2022-12-12T04:32:47.025Z,1004.32
2022-12-12T04:33:47.006Z,1004.33
2022-12-12T04:34:47.029Z,1004.39
2022-12-12T04:35:46.976Z,1004.39
2022-12-12T04:36:46.970Z,1004.40
2022-12-12T04:37:46.962Z,1004.44
2022-12-12T04:38:47.004Z,1004.47
2022-12-12T04:39:47.036Z,1004.49
2022-12-12T04:40:46.914Z,1004.50
2022-12-12T04:41:46.926Z,1004.49
2022-12-12T04:42:46.903Z,1004.51
2022-12-12T04:43:46.947Z,1004.51
2022-12-12T04:44:46.941Z,1004.53
2022-12-12T04:45:46.897Z,1004.48
2022-12-12T04:46:46.870Z,1004.48
2022-12-12T04:47:46.901Z,1004.47
2022-12-12T04:48:46.844Z,1004.45
2022-12-12T04:49:46.853Z,1004.44
2022-12-12T04:50:46.799Z,1004.48
2022-12-12T04:51:46.800Z,1004.46
2022-12-12T04:52:46.808Z,1004.45
2022-12-12T04:53:46.830Z,1004.51
2022-12-12T04:54:46.798Z,1004.45
2022-12-12T04:55:46.782Z,1004.48
2022-12-12T04:56:46.730Z,1004.46
2022-12-12T04:57:46.782Z,1004.51
2022-12-12T04:58:46.750Z,1004.46
2022-12-12T04:59:46.849Z,1004.48
2022-12-12T05:00:47.585Z,1004.50
2022-12-12T05:01:52.635Z,1004.52
2022-12-12T05:02:46.733Z,1004.48
2022-12-12T05:03:46.700Z,1004.52
2022-12-12T05:04:46.663Z,1004.52
2022-12-12T05:05:46.687Z,1004.46
2022-12-12T05:06:46.638Z,1004.49
2022-12-12T05:07:46.691Z,1004.49
2022-12-12T05:08:46.636Z,1004.50
2022-12-12T05:09:46.634Z,1004.51
2022-12-12T05:10:46.620Z,1004.50
2022-12-12T05:11:46.604Z,1004.51
2022-12-12T05:12:46.594Z,1004.53
2022-12-12T05:13:46.576Z,1004.55
2022-12-12T05:14:46.625Z,1004.55
2022-12-12T05:15:46.542Z,1004.60
2022-12-12T05:16:46.642Z,1004.59
2022-12-12T05:17:47.501Z,1004.58
2022-12-12T05:18:46.513Z,1004.61
2022-12-12T05:19:46.560Z,1004.62
2022-12-12T05:20:46.528Z,1004.60
2022-12-12T05:21:46.506Z,1004.59
2022-12-12T05:22:46.492Z,1004.62
2022-12-12T05:23:46.465Z,1004.58
2022-12-12T05:24:46.504Z,1004.56
2022-12-12T05:25:46.429Z,1004.63
2022-12-12T05:26:46.425Z,1004.55
2022-12-12T05:27:46.411Z,1004.61
2022-12-12T05:28:46.392Z,1004.56
2022-12-12T05:29:46.425Z,1004.54
2022-12-12T05:30:46.519Z,1004.57
2022-12-12T05:31:46.380Z,1004.53
2022-12-12T05:32:46.401Z,1004.55
2022-12-12T05:33:46.318Z,1004.58
2022-12-12T05:34:46.382Z,1004.55
2022-12-12T05:35:46.308Z,1004.55
2022-12-12T05:36:46.299Z,1004.58
2022-12-12T05:37:51.485Z,1004.59
2022-12-12T05:38:46.283Z,1004.59
2022-12-12T05:39:46.305Z,1004.57
2022-12-12T05:40:46.321Z,1004.58
2022-12-12T05:41:46.302Z,1004.60
2022-12-12T05:42:46.245Z,1004.54
2022-12-12T05:43:46.295Z,1004.56
2022-12-12T05:44:46.271Z,1004.55
2022-12-12T05:45:46.347Z,1004.56
2022-12-12T05:46:46.213Z,1004.55
2022-12-12T05:47:46.212Z,1004.62
2022-12-12T05:48:46.236Z,1004.55
2022-12-12T05:49:46.142Z,1004.56
2022-12-12T05:50:46.149Z,1004.57
2022-12-12T05:51:46.128Z,1004.56
2022-12-12T05:52:46.162Z,1004.55
2022-12-12T05:53:46.127Z,1004.59
2022-12-12T05:54:46.148Z,1004.55
2022-12-12T05:55:46.133Z,1004.55
2022-12-12T05:56:46.101Z,1004.52
2022-12-12T05:57:46.110Z,1004.55
2022-12-12T05:58:46.106Z,1004.57
2022-12-12T05:59:46.075Z,1004.60
2022-12-12T06:00:46.061Z,1004.62
2022-12-12T06:01:46.067Z,1004.58
2022-12-12T06:02:46.101Z,1004.61
2022-12-12T06:03:46.139Z,1004.59
2022-12-12T06:04:46.011Z,1004.63
2022-12-12T06:05:46.009Z,1004.64
2022-12-12T06:06:45.980Z,1004.65
2022-12-12T06:07:46.064Z,1004.66
2022-12-12T06:08:45.963Z,1004.63
2022-12-12T06:09:45.996Z,1004.66
2022-12-12T06:10:45.910Z,1004.69
2022-12-12T06:11:45.928Z,1004.68
2022-12-12T06:12:45.955Z,1004.72
2022-12-12T06:13:45.909Z,1004.74
2022-12-12T06:14:45.889Z,1004.78
2022-12-12T06:15:46.377Z,1004.75
2022-12-12T06:16:45.836Z,1004.71
2022-12-12T06:17:45.839Z,1004.74
2022-12-12T06:18:45.812Z,1004.77
2022-12-12T06:19:45.811Z,1004.70
2022-12-12T06:20:45.788Z,1004.69
2022-12-12T06:21:45.823Z,1004.65
2022-12-12T06:22:49.164Z,1004.68
2022-12-12T06:23:45.767Z,1004.68
2022-12-12T06:24:45.749Z,1004.65
2022-12-12T06:25:45.737Z,1004.65
2022-12-12T06:26:45.731Z,1004.69
2022-12-12T06:27:45.750Z,1004.71
2022-12-12T06:28:45.703Z,1004.75
2022-12-12T06:29:45.699Z,1004.77
2022-12-12T06:30:45.712Z,1004.78
2022-12-12T06:31:45.676Z,1004.75
2022-12-12T06:32:45.664Z,1004.77
2022-12-12T06:33:45.681Z,1004.78
2022-12-12T06:34:45.636Z,1004.76
2022-12-12T06:35:45.634Z,1004.77
2022-12-12T06:36:45.660Z,1004.79
2022-12-12T06:37:45.612Z,1004.78
2022-12-12T06:38:45.598Z,1004.77
2022-12-12T06:39:45.616Z,1004.77
2022-12-12T06:40:45.572Z,1004.80
2022-12-12T06:41:45.561Z,1004.79
2022-12-12T06:42:48.581Z,1004.84
2022-12-12T06:43:45.540Z,1004.82
2022-12-12T06:44:45.523Z,1004.84
2022-12-12T06:45:45.563Z,1004.87
2022-12-12T06:46:45.566Z,1004.87
2022-12-12T06:47:45.497Z,1004.88
2022-12-12T06:48:45.479Z,1004.83
2022-12-12T06:49:45.477Z,1004.83
2022-12-12T06:50:45.493Z,1004.84
2022-12-12T06:51:45.496Z,1004.84
2022-12-12T06:52:45.435Z,1004.81
2022-12-12T06:53:45.426Z,1004.82
2022-12-12T06:54:45.412Z,1004.86
2022-12-12T06:55:45.407Z,1004.85
2022-12-12T06:56:48.420Z,1004.86
2022-12-12T06:57:45.416Z,1004.90
2022-12-12T06:58:45.374Z,1004.87
2022-12-12T06:59:45.359Z,1004.85
2022-12-12T07:00:45.343Z,1004.86
2022-12-12T07:01:45.454Z,1004.87
2022-12-12T07:02:45.350Z,1004.90
2022-12-12T07:03:45.342Z,1004.87
2022-12-12T07:04:45.298Z,1004.91
2022-12-12T07:05:45.295Z,1004.89
2022-12-12T07:06:45.276Z,1004.96
2022-12-12T07:07:45.270Z,1004.93
2022-12-12T07:08:45.258Z,1004.93
2022-12-12T07:09:45.271Z,1004.91
2022-12-12T07:10:45.237Z,1004.90
2022-12-12T07:11:45.229Z,1004.91
2022-12-12T07:12:47.748Z,1004.89
2022-12-12T07:13:45.226Z,1004.91
2022-12-12T07:14:45.191Z,1004.91
2022-12-12T07:15:45.244Z,1004.91
2022-12-12T07:16:45.205Z,1004.94
2022-12-12T07:17:45.155Z,1004.91
2022-12-12T07:18:45.148Z,1004.91
2022-12-12T07:19:45.132Z,1004.87
2022-12-12T07:20:45.140Z,1004.90
2022-12-12T07:21:45.499Z,1004.87
2022-12-12T07:22:45.106Z,1004.88
2022-12-12T07:23:45.090Z,1004.84
2022-12-12T07:24:45.083Z,1004.85
2022-12-12T07:25:45.071Z,1004.91
2022-12-12T07:26:45.079Z,1004.94
2022-12-12T07:27:45.088Z,1004.91
2022-12-12T07:28:45.036Z,1004.94
2022-12-12T07:29:45.021Z,1004.92
2022-12-12T07:30:45.073Z,1004.93
2022-12-12T07:31:44.996Z,1004.94
2022-12-12T07:32:44.989Z,1004.96
2022-12-12T07:33:45.061Z,1004.91
2022-12-12T07:34:44.973Z,1004.94
2022-12-12T07:35:44.952Z,1004.94
2022-12-12T07:36:44.946Z,1004.93
2022-12-12T07:37:44.930Z,1004.98
2022-12-12T07:38:44.928Z,1004.98
2022-12-12T07:39:44.948Z,1005.00
2022-12-12T07:40:44.902Z,1004.99
2022-12-12T07:41:44.884Z,1005.03
2022-12-12T07:42:44.908Z,1005.02
2022-12-12T07:43:45.243Z,1005.00
2022-12-12T07:44:44.857Z,1005.03
2022-12-12T07:45:44.886Z,1005.04
2022-12-12T07:46:44.897Z,1005.02
2022-12-12T07:47:44.820Z,1005.05
2022-12-12T07:48:44.861Z,1005.05
2022-12-12T07:49:44.800Z,1005.09
2022-12-12T07:50:44.793Z,1005.10
2022-12-12T07:51:48.975Z,1005.05
2022-12-12T07:52:44.766Z,1005.09
2022-12-12T07:53:44.752Z,1005.04
2022-12-12T07:54:44.747Z,1005.09
2022-12-12T07:55:44.728Z,1005.06
2022-12-12T07:56:44.723Z,1005.12
2022-12-12T07:57:44.743Z,1005.12
2022-12-12T07:58:44.701Z,1005.10
2022-12-12T07:59:44.692Z,1005.14
2022-12-12T08:00:44.686Z,1005.13
2022-12-12T08:01:44.715Z,1005.14
2022-12-12T08:02:44.656Z,1005.16
2022-12-12T08:03:44.675Z,1005.15
2022-12-12T08:04:44.718Z,1005.22
2022-12-12T08:05:44.620Z,1005.20
2022-12-12T08:06:44.619Z,1005.20
2022-12-12T08:07:44.597Z,1005.21
2022-12-12T08:08:44.595Z,1005.22
2022-12-12T08:09:44.608Z,1005.17
2022-12-12T08:10:44.564Z,1005.21
2022-12-12T08:11:46.468Z,1005.20
2022-12-12T08:12:44.544Z,1005.24
2022-12-12T08:13:44.540Z,1005.25
2022-12-12T08:14:44.519Z,1005.23
2022-12-12T08:15:44.589Z,1005.25
2022-12-12T08:16:44.497Z,1005.27
2022-12-12T08:17:44.487Z,1005.24
2022-12-12T08:18:44.481Z,1005.26
2022-12-12T08:19:44.473Z,1005.25
2022-12-12T08:20:44.457Z,1005.27
2022-12-12T08:21:44.475Z,1005.25
2022-12-12T08:22:44.435Z,1005.29
2022-12-12T08:23:44.421Z,1005.28
2022-12-12T08:24:44.415Z,1005.25
2022-12-12T08:25:44.397Z,1005.24
2022-12-12T08:26:44.388Z,1005.26
2022-12-12T08:27:44.599Z,1005.25
2022-12-12T08:28:44.370Z,1005.31
2022-12-12T08:29:44.355Z,1005.30
2022-12-12T08:30:44.357Z,1005.33
2022-12-12T08:31:44.377Z,1005.34
2022-12-12T08:32:44.323Z,1005.36
2022-12-12T08:33:44.349Z,1005.42
2022-12-12T08:34:44.306Z,1005.45
2022-12-12T08:35:44.286Z,1005.44
2022-12-12T08:36:44.278Z,1005.43
2022-12-12T08:37:44.262Z,1005.43
2022-12-12T08:38:44.256Z,1005.47
2022-12-12T08:39:44.290Z,1005.47
2022-12-12T08:40:44.230Z,1005.45
2022-12-12T08:41:44.219Z,1005.48
2022-12-12T08:42:44.210Z,1005.47
2022-12-12T08:43:44.203Z,1005.49
2022-12-12T08:44:44.191Z,1005.51
2022-12-12T08:45:44.203Z,1005.49
2022-12-12T08:46:44.180Z,1005.50
2022-12-12T08:47:44.147Z,1005.52
2022-12-12T08:48:44.144Z,1005.49
2022-12-12T08:49:44.133Z,1005.51
2022-12-12T08:50:44.122Z,1005.51
2022-12-12T08:51:44.137Z,1005.55
2022-12-12T08:52:44.102Z,1005.51
2022-12-12T08:53:44.082Z,1005.52
2022-12-12T08:54:44.078Z,1005.54
2022-12-12T08:55:44.060Z,1005.54
2022-12-12T08:56:44.049Z,1005.58
2022-12-12T08:57:44.075Z,1005.55
2022-12-12T08:58:44.038Z,1005.54
2022-12-12T08:59:44.014Z,1005.56
2022-12-12T09:00:44.026Z,1005.57
2022-12-12T09:01:44.066Z,1005.58
2022-12-12T09:02:44.080Z,1005.56
2022-12-12T09:03:44.007Z,1005.59
2022-12-12T09:04:43.961Z,1005.61
2022-12-12T09:05:43.977Z,1005.65
2022-12-12T09:06:43.945Z,1005.64
2022-12-12T09:07:43.930Z,1005.66
2022-12-12T09:08:43.917Z,1005.62
2022-12-12T09:09:43.940Z,1005.63
2022-12-12T09:10:43.889Z,1005.68
2022-12-12T09:11:43.894Z,1005.62
2022-12-12T09:12:43.866Z,1005.63
2022-12-12T09:13:43.864Z,1005.63
2022-12-12T09:14:43.847Z,1005.65
2022-12-12T09:15:43.878Z,1005.65
2022-12-12T09:16:43.866Z,1005.68
2022-12-12T09:17:43.816Z,1005.71
2022-12-12T09:18:48.554Z,1005.74
2022-12-12T09:19:43.800Z,1005.72
2022-12-12T09:20:43.781Z,1005.72
2022-12-12T09:21:43.794Z,1005.73
2022-12-12T09:22:43.754Z,1005.72
2022-12-12T09:23:43.750Z,1005.72
2022-12-12T09:24:43.732Z,1005.68
2022-12-12T09:25:43.725Z,1005.74
2022-12-12T09:26:43.743Z,1005.76
2022-12-12T09:27:43.766Z,1005.72
2022-12-12T09:28:43.687Z,1005.74
2022-12-12T09:29:43.681Z,1005.76
2022-12-12T09:30:43.667Z,1005.79
2022-12-12T09:31:43.678Z,1005.78
2022-12-12T09:32:43.739Z,1005.77
2022-12-12T09:33:43.632Z,1005.79
2022-12-12T09:34:43.619Z,1005.77
2022-12-12T09:35:43.643Z,1005.81
2022-12-12T09:36:43.597Z,1005.78
2022-12-12T09:37:43.589Z,1005.78
2022-12-12T09:38:43.602Z,1005.76
2022-12-12T09:39:43.566Z,1005.77
2022-12-12T09:40:43.548Z,1005.77
2022-12-12T09:41:43.544Z,1005.70
2022-12-12T09:42:43.592Z,1005.75
2022-12-12T09:43:43.525Z,1005.77
2022-12-12T09:44:43.539Z,1005.76
2022-12-12T09:45:43.556Z,1005.73
2022-12-12T09:46:43.487Z,1005.74
2022-12-12T09:47:43.480Z,1005.72
2022-12-12T09:48:43.463Z,1005.71
2022-12-12T09:49:44.180Z,1005.70
2022-12-12T09:50:43.480Z,1005.71
2022-12-12T09:51:43.445Z,1005.72
2022-12-12T09:52:43.418Z,1005.68
2022-12-12T09:53:43.408Z,1005.70
2022-12-12T09:54:43.419Z,1005.69
2022-12-12T09:55:43.385Z,1005.71
2022-12-12T09:56:43.404Z,1005.72
2022-12-12T09:57:43.364Z,1005.69
2022-12-12T09:58:47.464Z,1005.66
2022-12-12T09:59:43.346Z,1005.70
2022-12-12T10:00:43.363Z,1005.70
2022-12-12T10:01:43.431Z,1005.71
2022-12-12T10:02:43.324Z,1005.68
2022-12-12T10:03:43.293Z,1005.76
2022-12-12T10:04:47.871Z,1005.70
2022-12-12T10:05:43.277Z,1005.72
2022-12-12T10:06:43.274Z,1005.77
2022-12-12T10:07:43.281Z,1005.72
2022-12-12T10:08:43.234Z,1005.77
2022-12-12T10:09:43.222Z,1005.74
2022-12-12T10:10:43.211Z,1005.73
2022-12-12T10:11:43.222Z,1005.76
2022-12-12T10:12:43.192Z,1005.67
2022-12-12T10:13:43.216Z,1005.78
2022-12-12T10:14:43.172Z,1005.74
2022-12-12T10:15:43.155Z,1005.76
2022-12-12T10:16:43.231Z,1005.74
2022-12-12T10:17:43.130Z,1005.74
2022-12-12T10:18:43.124Z,1005.72
2022-12-12T10:19:43.130Z,1005.80
2022-12-12T10:20:43.102Z,1005.79
2022-12-12T10:21:43.092Z,1005.77
2022-12-12T10:22:43.080Z,1005.74
2022-12-12T10:23:43.065Z,1005.70
2022-12-12T10:24:43.085Z,1005.69
2022-12-12T10:25:43.058Z,1005.65
2022-12-12T10:26:43.045Z,1005.67
2022-12-12T10:27:43.029Z,1005.66
2022-12-12T10:28:43.011Z,1005.63
2022-12-12T10:29:42.999Z,1005.63
2022-12-12T10:30:43.022Z,1005.64
2022-12-12T10:31:42.996Z,1005.62
2022-12-12T10:32:42.968Z,1005.58
2022-12-12T10:33:42.954Z,1005.63
2022-12-12T10:34:43.042Z,1005.66
2022-12-12T10:35:42.936Z,1005.61
2022-12-12T10:36:42.954Z,1005.67
2022-12-12T10:37:43.117Z,1005.68
2022-12-12T10:38:42.917Z,1005.69
2022-12-12T10:39:44.417Z,1005.72
2022-12-12T10:40:42.886Z,1005.66
2022-12-12T10:41:42.871Z,1005.69
2022-12-12T10:42:42.902Z,1005.69
2022-12-12T10:43:42.845Z,1005.66
2022-12-12T10:44:47.026Z,1005.70
2022-12-12T10:45:42.850Z,1005.70
2022-12-12T10:46:42.902Z,1005.67
2022-12-12T10:47:42.800Z,1005.69
2022-12-12T10:48:42.817Z,1005.64
2022-12-12T10:49:42.781Z,1005.67
2022-12-12T10:50:42.780Z,1005.66
2022-12-12T10:51:42.756Z,1005.71
2022-12-12T10:52:42.753Z,1005.70
2022-12-12T10:53:42.767Z,1005.71
2022-12-12T10:54:42.729Z,1005.68
2022-12-12T10:55:42.713Z,1005.65
2022-12-12T10:56:42.703Z,1005.69
2022-12-12T10:57:42.687Z,1005.67
2022-12-12T10:58:42.689Z,1005.72
2022-12-12T10:59:42.696Z,1005.76
2022-12-12T11:00:42.761Z,1005.75
2022-12-12T11:02:08.903Z,1005.78
2022-12-12T11:02:42.760Z,1005.75
2022-12-12T11:03:42.667Z,1005.77
2022-12-12T11:04:42.613Z,1005.79
2022-12-12T11:05:42.619Z,1005.77
2022-12-12T11:06:42.593Z,1005.73
2022-12-12T11:07:42.592Z,1005.67
2022-12-12T11:08:42.570Z,1005.68
2022-12-12T11:09:42.557Z,1005.69
2022-12-12T11:10:42.576Z,1005.68
2022-12-12T11:11:42.537Z,1005.70
2022-12-12T11:12:42.532Z,1005.70
2022-12-12T11:13:42.515Z,1005.68
2022-12-12T11:14:42.497Z,1005.74
2022-12-12T11:15:42.487Z,1005.72
2022-12-12T11:16:42.603Z,1005.68
2022-12-12T11:17:42.469Z,1005.63
2022-12-12T11:18:42.452Z,1005.62
2022-12-12T11:19:42.449Z,1005.64
2022-12-12T11:20:42.428Z,1005.57
2022-12-12T11:21:42.422Z,1005.64
2022-12-12T11:22:42.439Z,1005.61
2022-12-12T11:23:42.400Z,1005.60
2022-12-12T11:24:42.383Z,1005.59
2022-12-12T11:25:42.378Z,1005.57
2022-12-12T11:26:42.363Z,1005.54
2022-12-12T11:27:42.357Z,1005.57
2022-12-12T11:28:42.368Z,1005.54
2022-12-12T11:29:42.338Z,1005.52
2022-12-12T11:30:42.317Z,1005.55
2022-12-12T11:31:42.349Z,1005.54
2022-12-12T11:32:42.298Z,1005.51
2022-12-12T11:33:42.287Z,1005.46
2022-12-12T11:34:42.296Z,1005.49
2022-12-12T11:35:47.274Z,1005.49
2022-12-12T11:36:42.263Z,1005.51
2022-12-12T11:37:42.250Z,1005.47
2022-12-12T11:38:42.228Z,1005.51
2022-12-12T11:39:42.251Z,1005.50
2022-12-12T11:40:42.207Z,1005.51
2022-12-12T11:41:42.198Z,1005.49
2022-12-12T11:42:42.185Z,1005.51
2022-12-12T11:43:42.177Z,1005.48
2022-12-12T11:44:42.161Z,1005.50
2022-12-12T11:45:42.213Z,1005.48
2022-12-12T11:46:42.139Z,1005.48
2022-12-12T11:47:42.135Z,1005.42
2022-12-12T11:48:42.122Z,1005.36
2022-12-12T11:49:42.111Z,1005.35
2022-12-12T11:50:42.096Z,1005.39
2022-12-12T11:51:42.111Z,1005.38
2022-12-12T11:52:42.074Z,1005.35
2022-12-12T11:53:42.068Z,1005.35
2022-12-12T11:54:42.054Z,1005.37
2022-12-12T11:55:42.043Z,1005.34
2022-12-12T11:56:42.083Z,1005.35
2022-12-12T11:57:42.022Z,1005.34
2022-12-12T11:58:42.009Z,1005.40
2022-12-12T11:59:42.012Z,1005.37
2022-12-12T12:00:41.991Z,1005.33
2022-12-12T12:01:41.974Z,1005.41
2022-12-12T12:02:42.000Z,1005.39
2022-12-12T12:03:42.016Z,1005.40
2022-12-12T12:04:41.973Z,1005.45
2022-12-12T12:05:41.940Z,1005.43